ADM331 VNLK-VNLK
Flight info
| Callsign | ADM331 |
|---|---|
| Flight time | N/A |
| Altitude | 13500 |
| Route | LOCAL |
| Aircraft | DA62/L-SDFGRY/C |
Departure
| Time | 2025-04-30 22:23 |
|---|---|
| Airport | Tenzing-Hillary Airport (VNLK) |
Arrival
| Time | N/A |
|---|---|
| Airport | Tenzing-Hillary Airport (VNLK) |
| Time | Latitude | Longitude | Altitude | Speed | Heading |
|---|---|---|---|---|---|
| 2025-04-30 22:10 | 27.68769 | 86.73188 | 9467 ft | 0 kts | 27° |
| 2025-04-30 22:15 | 27.68766 | 86.73177 | 9461 ft | 3 kts | 291° |
| 2025-04-30 22:16 | 27.68785 | 86.73179 | 9460 ft | 1 kts | 62° |
| 2025-04-30 22:16 | 27.68792 | 86.73167 | 9460 ft | 0 kts | 240° |
| 2025-04-30 22:17 | 27.68800 | 86.73183 | 9461 ft | 0 kts | 239° |
| 2025-04-30 22:18 | 27.68782 | 86.73149 | 9463 ft | 18 kts | 239° |
| 2025-04-30 22:19 | 27.68192 | 86.72074 | 9263 ft | 124 kts | 236° |
| 2025-04-30 22:19 | 27.66850 | 86.70531 | 9361 ft | 165 kts | 213° |
| 2025-04-30 22:20 | 27.64651 | 86.69814 | 8919 ft | 163 kts | 186° |
| 2025-04-30 22:20 | 27.62594 | 86.70234 | 8682 ft | 167 kts | 106° |
| 2025-04-30 22:21 | 27.63983 | 86.71145 | 9602 ft | 150 kts | 350° |
| 2025-04-30 22:21 | 27.65091 | 86.70981 | 9593 ft | 169 kts | 357° |
| 2025-04-30 22:21 | 27.67545 | 86.71261 | 9758 ft | 180 kts | 7° |
| 2025-04-30 22:22 | 27.71217 | 86.71212 | 10523 ft | 170 kts | 1° |
| 2025-04-30 22:23 | 27.73557 | 86.71425 | 11092 ft | 160 kts | 11° |
| 2025-04-30 22:23 | 27.75773 | 86.71683 | 11409 ft | 156 kts | 8° |
| 2025-04-30 22:24 | 27.77918 | 86.72337 | 11463 ft | 152 kts | 17° |
| 2025-04-30 22:24 | 27.79836 | 86.72181 | 11651 ft | 147 kts | 359° |
| 2025-04-30 22:25 | 27.81560 | 86.71837 | 12893 ft | 129 kts | 327° |
| 2025-04-30 22:25 | 27.82243 | 86.70075 | 13484 ft | 145 kts | 224° |
| 2025-04-30 22:25 | 27.81448 | 86.70247 | 13178 ft | 136 kts | 125° |
| 2025-04-30 22:26 | 27.80385 | 86.72770 | 12455 ft | 114 kts | 120° |
| 2025-04-30 22:27 | 27.79532 | 86.72397 | 12315 ft | 134 kts | 341° |
| 2025-04-30 22:27 | 27.80859 | 86.71544 | 12275 ft | 107 kts | 318° |
| 2025-04-30 22:28 | 27.81249 | 86.71078 | 12291 ft | 0 kts | 307° |
| 2025-04-30 22:28 | 27.81261 | 86.71086 | 12292 ft | 0 kts | 155° |
| 2025-04-30 22:30 | 27.80929 | 86.71469 | 12885 ft | 150 kts | 124° |
| 2025-04-30 22:31 | 27.79579 | 86.73066 | 13073 ft | 127 kts | 200° |
| 2025-04-30 22:31 | 27.80176 | 86.72098 | 12373 ft | 121 kts | 359° |
| 2025-04-30 22:32 | 27.81176 | 86.71166 | 12272 ft | 38 kts | 316° |
| 2025-04-30 22:32 | 27.81245 | 86.71082 | 12290 ft | 0 kts | 136° |
| 2025-04-30 22:34 | 27.80748 | 86.71602 | 12167 ft | 94 kts | 148° |
| 2025-04-30 22:35 | 27.78888 | 86.71787 | 12144 ft | 168 kts | 181° |
| 2025-04-30 22:35 | 27.76730 | 86.71421 | 13056 ft | 145 kts | 193° |
| 2025-04-30 22:36 | 27.74699 | 86.71001 | 13510 ft | 152 kts | 184° |
| 2025-04-30 22:36 | 27.72487 | 86.70707 | 13803 ft | 175 kts | 185° |
| 2025-04-30 22:36 | 27.71254 | 86.70565 | 13931 ft | 181 kts | 185° |
| 2025-04-30 22:37 | 27.68843 | 86.70695 | 14489 ft | 176 kts | 169° |
| 2025-04-30 22:37 | 27.66585 | 86.71678 | 14763 ft | 181 kts | 119° |
| 2025-04-30 22:38 | 27.68272 | 86.73337 | 15314 ft | 185 kts | 294° |
| 2025-04-30 22:39 | 27.66493 | 86.71405 | 15058 ft | 205 kts | 202° |
| 2025-04-30 22:39 | 27.63914 | 86.70151 | 15058 ft | 205 kts | 207° |
| 2025-04-30 22:40 | 27.61379 | 86.68789 | 15074 ft | 203 kts | 205° |
| 2025-04-30 22:40 | 27.58821 | 86.67398 | 15077 ft | 203 kts | 205° |
| 2025-04-30 22:41 | 27.56290 | 86.65995 | 15075 ft | 203 kts | 206° |
| 2025-04-30 22:41 | 27.55019 | 86.65279 | 15047 ft | 204 kts | 206° |
| 2025-04-30 22:41 | 27.52499 | 86.63840 | 15014 ft | 203 kts | 206° |
| 2025-04-30 22:42 | 27.48737 | 86.61638 | 15017 ft | 203 kts | 207° |
| 2025-04-30 22:43 | 27.46268 | 86.60158 | 15017 ft | 201 kts | 207° |
| 2025-04-30 22:43 | 27.43794 | 86.58646 | 15017 ft | 202 kts | 208° |
| 2025-04-30 22:44 | 27.41337 | 86.57117 | 14959 ft | 205 kts | 207° |
| 2025-04-30 22:44 | 27.38822 | 86.55524 | 14981 ft | 209 kts | 208° |
| 2025-04-30 22:44 | 27.37552 | 86.54707 | 14977 ft | 210 kts | 208° |
| 2025-04-30 22:45 | 27.35032 | 86.53068 | 14981 ft | 211 kts | 208° |
| 2025-04-30 22:46 | 27.31258 | 86.50553 | 14980 ft | 211 kts | 209° |
| 2025-04-30 22:46 | 27.28748 | 86.48842 | 14929 ft | 210 kts | 209° |
| 2025-04-30 22:47 | 27.26261 | 86.47115 | 14930 ft | 209 kts | 210° |
| 2025-04-30 22:47 | 27.23513 | 86.46547 | 14924 ft | 205 kts | 173° |
| 2025-04-30 22:48 | 27.20571 | 86.46761 | 14548 ft | 221 kts | 177° |
| 2025-04-30 22:48 | 27.18999 | 86.46795 | 14275 ft | 228 kts | 177° |
| 2025-04-30 22:48 | 27.15870 | 86.46878 | 13661 ft | 211 kts | 176° |
| 2025-04-30 22:49 | 27.13087 | 86.46964 | 13034 ft | 193 kts | 176° |
| 2025-04-30 22:49 | 27.10605 | 86.47035 | 12406 ft | 164 kts | 176° |
| 2025-04-30 22:50 | 27.07477 | 86.47129 | 11489 ft | 141 kts | 175° |
| 2025-04-30 22:51 | 27.05548 | 86.47188 | 10898 ft | 136 kts | 175° |
| 2025-04-30 22:51 | 27.03694 | 86.47242 | 10330 ft | 132 kts | 175° |
| 2025-04-30 22:52 | 27.01860 | 86.47295 | 9748 ft | 129 kts | 175° |
| 2025-04-30 22:52 | 27.00964 | 86.47322 | 9447 ft | 134 kts | 174° |
| 2025-04-30 22:52 | 26.98635 | 86.47393 | 8963 ft | 195 kts | 176° |
| 2025-04-30 22:53 | 26.95757 | 86.47471 | 8382 ft | 214 kts | 176° |
| 2025-04-30 22:53 | 26.92748 | 86.47557 | 7786 ft | 219 kts | 176° |
| 2025-04-30 22:54 | 26.88174 | 86.47692 | 6929 ft | 218 kts | 175° |
| 2025-04-30 22:55 | 26.85188 | 86.47779 | 6481 ft | 213 kts | 175° |
| 2025-04-30 22:55 | 26.82607 | 86.47849 | 5985 ft | 160 kts | 174° |
| 2025-04-30 22:56 | 26.80594 | 86.47911 | 5597 ft | 131 kts | 169° |
| 2025-04-30 22:56 | 26.79739 | 86.47929 | 5423 ft | 114 kts | 168° |
| 2025-04-30 22:56 | 26.78009 | 86.48000 | 5355 ft | 143 kts | 170° |
| 2025-04-30 22:57 | 26.75887 | 86.48057 | 5064 ft | 162 kts | 171° |
| 2025-04-30 22:57 | 26.73634 | 86.48114 | 4704 ft | 158 kts | 170° |
| 2025-04-30 22:58 | 26.70678 | 86.48859 | 4173 ft | 135 kts | 151° |
| 2025-04-30 22:59 | 26.69074 | 86.49542 | 3788 ft | 113 kts | 150° |
| 2025-04-30 22:59 | 26.67747 | 86.50110 | 3496 ft | 96 kts | 148° |
| 2025-04-30 23:00 | 26.66533 | 86.50637 | 3224 ft | 93 kts | 148° |
| 2025-04-30 23:00 | 26.65928 | 86.50897 | 3103 ft | 91 kts | 149° |
| 2025-04-30 23:00 | 26.64827 | 86.51367 | 2843 ft | 84 kts | 150° |
| 2025-04-30 23:01 | 26.63409 | 86.51991 | 3113 ft | 143 kts | 152° |
| 2025-04-30 23:02 | 26.60631 | 86.53157 | 2615 ft | 127 kts | 152° |
| 2025-04-30 23:02 | 26.58991 | 86.53949 | 2220 ft | 132 kts | 145° |
| 2025-04-30 23:02 | 26.58303 | 86.54586 | 2158 ft | 121 kts | 130° |
| 2025-04-30 23:03 | 26.57167 | 86.57077 | 2166 ft | 133 kts | 114° |
| 2025-04-30 23:03 | 26.56841 | 86.57922 | 2146 ft | 106 kts | 112° |
| 2025-04-30 23:04 | 26.56266 | 86.59436 | 2188 ft | 122 kts | 113° |
| 2025-04-30 23:05 | 26.55280 | 86.62053 | 2170 ft | 135 kts | 112° |
| 2025-04-30 23:05 | 26.54906 | 86.63041 | 2118 ft | 138 kts | 113° |
| 2025-04-30 23:06 | 26.54071 | 86.65261 | 1713 ft | 98 kts | 114° |
| 2025-04-30 23:06 | 26.53611 | 86.66484 | 1487 ft | 80 kts | 112° |
| 2025-04-30 23:07 | 26.53120 | 86.67782 | 1316 ft | 98 kts | 111° |
| 2025-04-30 23:07 | 26.52618 | 86.69119 | 1043 ft | 92 kts | 113° |
| 2025-04-30 23:07 | 26.52377 | 86.69757 | 900 ft | 89 kts | 111° |
| 2025-04-30 23:08 | 26.51649 | 86.71686 | 563 ft | 93 kts | 110° |
| 2025-04-30 23:08 | 26.51414 | 86.72307 | 437 ft | 85 kts | 111° |
| 2025-04-30 23:09 | 26.51014 | 86.73374 | 257 ft | 67 kts | 111° |
| 2025-04-30 23:10 | 26.50975 | 86.73752 | 252 ft | 7 kts | 18° |
| 2025-04-30 23:10 | 26.51021 | 86.73771 | 252 ft | 0 kts | 210° |